createdAt,value
2022-11-25T00:01:33.590Z,-2.47
2022-11-25T00:04:01.762Z,-2.49
2022-11-25T00:06:32.110Z,-2.49
2022-11-25T00:09:07.241Z,-2.47
2022-11-25T00:11:36.897Z,-2.55
2022-11-25T00:14:05.124Z,-2.51
2022-11-25T00:16:32.716Z,-2.46
2022-11-25T00:19:00.371Z,-2.50
2022-11-25T00:21:31.522Z,-2.45
2022-11-25T00:24:01.818Z,-2.44
2022-11-25T00:26:32.812Z,-2.46
2022-11-25T00:29:02.579Z,-2.42
2022-11-25T00:31:32.955Z,-2.44
2022-11-25T00:34:00.725Z,-2.44
2022-11-25T00:36:36.872Z,-2.39
2022-11-25T00:39:13.506Z,-2.44
2022-11-25T00:42:00.739Z,-2.46
2022-11-25T00:44:38.965Z,-2.45
2022-11-25T00:47:18.374Z,-2.48
2022-11-25T00:49:53.951Z,-2.44
2022-11-25T00:52:24.442Z,-2.51
2022-11-25T00:54:52.943Z,-2.58
2022-11-25T00:57:22.832Z,-2.51
2022-11-25T00:59:50.919Z,-2.47
2022-11-25T01:02:21.964Z,-2.54
2022-11-25T01:04:49.684Z,-2.49
2022-11-25T01:07:17.944Z,-2.51
2022-11-25T01:09:45.869Z,-2.45
2022-11-25T01:12:13.486Z,-2.44
2022-11-25T01:14:41.413Z,-2.53
2022-11-25T01:17:09.026Z,-2.52
2022-11-25T01:19:40.179Z,-2.45
2022-11-25T01:22:09.573Z,-2.43
2022-11-25T01:24:37.451Z,-2.49
2022-11-25T01:27:05.173Z,-2.45
2022-11-25T01:29:32.635Z,-2.46
2022-11-25T01:32:00.372Z,-2.47
2022-11-25T01:34:28.695Z,-2.46
2022-11-25T01:36:58.461Z,-2.48
2022-11-25T01:39:32.110Z,-2.47
2022-11-25T01:42:01.945Z,-2.45
2022-11-25T01:44:33.061Z,-2.39
2022-11-25T01:47:16.026Z,-2.39
2022-11-25T01:50:09.838Z,-2.30
2022-11-25T01:52:42.517Z,-2.38
2022-11-25T01:55:17.696Z,-2.35
2022-11-25T01:58:08.708Z,-2.30
2022-11-25T02:00:37.944Z,-2.37
2022-11-25T02:03:06.446Z,-2.43
2022-11-25T02:05:50.244Z,-2.48
2022-11-25T02:08:20.091Z,-2.55
2022-11-25T02:10:47.790Z,-2.48
2022-11-25T02:13:16.094Z,-2.48
2022-11-25T02:15:43.547Z,-2.46
2022-11-25T02:18:11.172Z,-2.46
2022-11-25T02:20:40.343Z,-2.48
2022-11-25T02:23:49.215Z,-2.32
2022-11-25T02:26:17.531Z,-2.38
2022-11-25T02:28:45.322Z,-2.38
2022-11-25T02:31:12.972Z,-2.40
2022-11-25T02:33:40.579Z,-2.45
2022-11-25T02:36:20.106Z,-2.45
2022-11-25T02:38:59.476Z,-2.44
2022-11-25T02:41:43.174Z,-2.53
2022-11-25T02:44:10.946Z,-2.54
2022-11-25T02:46:40.052Z,-2.57
2022-11-25T02:49:09.212Z,-2.50
2022-11-25T02:51:39.191Z,-2.55
2022-11-25T02:54:06.985Z,-2.52
2022-11-25T02:56:36.238Z,-2.56
2022-11-25T02:59:04.352Z,-2.56
2022-11-25T03:01:32.957Z,-2.53
2022-11-25T03:04:01.128Z,-2.49
2022-11-25T03:06:29.728Z,-2.48
2022-11-25T03:08:57.897Z,-2.41
2022-11-25T03:11:46.265Z,-2.36
2022-11-25T03:14:14.902Z,-2.38
2022-11-25T03:16:44.060Z,-2.38
2022-11-25T03:19:12.079Z,-2.38
2022-11-25T03:21:39.548Z,-2.33
2022-11-25T03:24:07.936Z,-2.33
2022-11-25T03:26:35.375Z,-2.31
2022-11-25T03:29:03.020Z,-2.32
2022-11-25T03:31:31.868Z,-2.28
2022-11-25T03:33:59.657Z,-2.26
2022-11-25T03:36:29.322Z,-2.39
2022-11-25T03:38:56.847Z,-2.32
2022-11-25T03:41:24.385Z,-2.28
2022-11-25T03:43:51.897Z,-2.24
2022-11-25T03:46:19.616Z,-2.24
2022-11-25T03:48:47.489Z,-2.26
2022-11-25T03:51:15.012Z,-2.29
2022-11-25T03:53:43.845Z,-2.25
2022-11-25T03:56:11.370Z,-2.25
2022-11-25T03:58:39.080Z,-2.28
2022-11-25T04:01:08.636Z,-2.28
2022-11-25T04:03:36.488Z,-2.24
2022-11-25T04:06:04.864Z,-2.24
2022-11-25T04:08:32.647Z,-2.28
2022-11-25T04:11:00.384Z,-2.24
2022-11-25T04:13:32.079Z,-2.15
2022-11-25T04:15:59.551Z,-2.22
2022-11-25T04:18:27.157Z,-2.28
2022-11-25T04:20:57.266Z,-2.21
2022-11-25T04:23:24.835Z,-2.23
2022-11-25T04:26:01.774Z,-2.26
2022-11-25T04:28:37.154Z,-2.25
2022-11-25T04:31:09.398Z,-2.17
2022-11-25T04:33:40.156Z,-2.24
2022-11-25T04:36:09.326Z,-2.29
2022-11-25T04:38:37.013Z,-2.29
2022-11-25T04:41:06.558Z,-2.25
2022-11-25T04:43:44.216Z,-2.22
2022-11-25T04:46:25.462Z,-2.11
2022-11-25T04:48:53.076Z,-2.19
2022-11-25T04:51:21.923Z,-2.12
2022-11-25T04:53:53.094Z,-2.11
2022-11-25T04:56:23.397Z,-2.07
2022-11-25T04:59:12.539Z,-2.06
2022-11-25T05:01:44.654Z,-2.07
2022-11-25T05:04:32.515Z,-2.03
2022-11-25T05:07:01.023Z,-2.06
2022-11-25T05:09:29.599Z,-2.07
2022-11-25T05:12:25.641Z,-2.07
2022-11-25T05:14:53.163Z,-2.03
2022-11-25T05:17:25.595Z,-2.02
2022-11-25T05:19:53.438Z,-1.95
2022-11-25T05:22:23.905Z,-1.93
2022-11-25T05:24:53.571Z,-1.96
2022-11-25T05:27:22.393Z,-1.99
2022-11-25T05:29:55.718Z,-1.94
2022-11-25T05:32:24.955Z,-1.97
2022-11-25T05:34:54.338Z,-2.03
2022-11-25T05:37:24.594Z,-2.09
2022-11-25T05:39:59.595Z,-2.07
2022-11-25T05:42:45.480Z,-2.11
2022-11-25T05:45:13.116Z,-2.14
2022-11-25T05:47:41.222Z,-2.14
2022-11-25T05:50:11.459Z,-2.04
2022-11-25T05:52:39.067Z,-2.01
2022-11-25T05:55:07.720Z,-1.92
2022-11-25T05:57:35.248Z,-2.00
2022-11-25T06:00:09.964Z,-2.02
2022-11-25T06:02:50.490Z,-2.03
2022-11-25T06:05:19.018Z,-2.01
2022-11-25T06:07:46.653Z,-1.97
2022-11-25T06:10:14.929Z,-2.02
2022-11-25T06:12:42.719Z,-2.07
2022-11-25T06:15:11.284Z,-2.12
2022-11-25T06:17:42.516Z,-2.12
2022-11-25T06:20:16.003Z,-2.11
2022-11-25T06:22:43.575Z,-2.12
2022-11-25T06:25:11.235Z,-2.09
2022-11-25T06:28:10.867Z,-2.17
2022-11-25T06:30:27.687Z,-2.17
2022-11-25T06:33:21.168Z,-2.22
2022-11-25T06:35:49.672Z,-2.19
2022-11-25T06:38:17.251Z,-2.26
2022-11-25T06:40:46.955Z,-2.15
2022-11-25T06:43:14.494Z,-2.15
2022-11-25T06:45:41.916Z,-2.15
2022-11-25T06:48:09.422Z,-2.08
2022-11-25T06:50:36.917Z,-2.14
2022-11-25T06:53:04.443Z,-2.18
2022-11-25T06:55:31.957Z,-2.13
2022-11-25T06:58:20.729Z,-2.10
2022-11-25T07:00:46.844Z,-1.99
2022-11-25T07:03:14.399Z,-1.88
2022-11-25T07:05:41.974Z,-1.83
2022-11-25T07:08:09.434Z,-1.79
2022-11-25T07:10:36.969Z,-1.82
2022-11-25T07:13:04.514Z,-1.73
2022-11-25T07:15:34.951Z,-1.73
2022-11-25T07:18:02.425Z,-1.80
2022-11-25T07:20:30.165Z,-1.87
2022-11-25T07:22:57.649Z,-1.93
2022-11-25T07:25:30.470Z,-1.81
2022-11-25T07:27:58.323Z,-1.81
2022-11-25T07:33:13.552Z,-1.90
2022-11-25T07:35:41.006Z,-1.95
2022-11-25T07:38:08.435Z,-1.93
2022-11-25T07:40:36.014Z,-1.97
2022-11-25T07:43:04.204Z,-1.93
2022-11-25T07:45:32.324Z,-1.94
2022-11-25T07:48:07.853Z,-1.91
2022-11-25T07:50:35.331Z,-1.79
2022-11-25T07:53:02.856Z,-1.80
2022-11-25T07:55:30.511Z,-1.77
2022-11-25T07:57:57.979Z,-1.75
2022-11-25T08:00:25.589Z,-1.77
2022-11-25T08:02:53.530Z,-1.75
2022-11-25T08:05:21.211Z,-1.78
2022-11-25T08:07:48.759Z,-1.94
2022-11-25T08:10:16.343Z,-1.88
2022-11-25T08:12:43.940Z,-1.93
2022-11-25T08:15:13.155Z,-1.91
2022-11-25T08:17:40.616Z,-1.82
2022-11-25T08:20:10.547Z,-1.78
2022-11-25T08:22:37.983Z,-1.78
2022-11-25T08:25:05.890Z,-1.60
2022-11-25T08:27:33.420Z,-1.60
2022-11-25T08:30:00.892Z,-1.53
2022-11-25T08:32:31.713Z,-1.58
2022-11-25T08:34:59.338Z,-1.56
2022-11-25T08:37:26.982Z,-1.58
2022-11-25T08:39:54.731Z,-1.57
2022-11-25T08:42:22.921Z,-1.58
2022-11-25T08:44:55.885Z,-1.47
2022-11-25T08:47:24.380Z,-1.56
2022-11-25T08:49:55.522Z,-1.61
2022-11-25T08:52:23.410Z,-1.74
2022-11-25T08:54:51.057Z,-1.86
2022-11-25T08:57:18.528Z,-2.01
2022-11-25T08:59:46.139Z,-2.06
2022-11-25T09:02:16.591Z,-2.06
2022-11-25T09:04:44.814Z,-2.05
2022-11-25T09:07:12.528Z,-2.05
2022-11-25T09:09:40.198Z,-2.03
2022-11-25T09:12:08.361Z,-1.93
2022-11-25T09:14:35.910Z,-1.93
2022-11-25T09:17:09.087Z,-1.87
2022-11-25T09:19:36.794Z,-1.88
2022-11-25T09:22:04.568Z,-1.90
2022-11-25T09:24:32.298Z,-1.83
2022-11-25T09:26:59.857Z,-1.76
2022-11-25T09:29:27.960Z,-1.80
2022-11-25T09:31:55.500Z,-1.82
2022-11-25T09:34:23.101Z,-1.80
2022-11-25T09:36:51.758Z,-1.69
2022-11-25T09:39:19.651Z,-1.62
2022-11-25T09:42:32.982Z,-1.50
2022-11-25T09:45:37.117Z,-1.55
2022-11-25T09:48:49.502Z,-1.55
2022-11-25T09:51:43.624Z,-1.55
2022-11-25T09:54:16.360Z,-1.62
2022-11-25T09:56:51.615Z,-1.77
2022-11-25T09:59:45.502Z,-1.81
2022-11-25T10:02:37.913Z,-1.82
2022-11-25T10:05:20.148Z,-1.75
2022-11-25T10:07:53.333Z,-1.84
2022-11-25T10:10:29.912Z,-1.77
2022-11-25T10:12:59.366Z,-1.79
2022-11-25T10:15:37.271Z,-1.71
2022-11-25T10:18:13.570Z,-1.66
2022-11-25T10:20:42.691Z,-1.60
2022-11-25T10:23:24.953Z,-1.69
2022-11-25T10:26:02.878Z,-1.79
2022-11-25T10:28:35.209Z,-1.80
2022-11-25T10:31:19.875Z,-1.83
2022-11-25T10:33:48.835Z,-1.86
2022-11-25T10:36:24.424Z,-1.84
2022-11-25T10:39:00.726Z,-1.82
2022-11-25T10:41:43.127Z,-1.72
2022-11-25T10:44:27.505Z,-1.74
2022-11-25T10:47:32.395Z,-1.64
2022-11-25T10:50:14.684Z,-1.63
2022-11-25T10:52:55.423Z,-1.69
2022-11-25T10:55:26.962Z,-1.71
2022-11-25T10:57:55.434Z,-1.79
2022-11-25T11:00:27.922Z,-1.79
2022-11-25T11:02:57.092Z,-1.74
2022-11-25T11:05:30.452Z,-1.63
2022-11-25T11:08:15.416Z,-1.68
2022-11-25T11:10:43.451Z,-1.69
2022-11-25T11:13:33.311Z,-1.50
2022-11-25T11:16:00.944Z,-1.54
2022-11-25T11:18:39.946Z,-1.55
2022-11-25T11:21:21.028Z,-1.58
2022-11-25T11:23:54.103Z,-1.54
2022-11-25T11:26:33.675Z,-1.53
2022-11-25T11:29:04.159Z,-1.64
2022-11-25T11:31:39.421Z,-1.70
2022-11-25T11:34:27.664Z,-1.83
2022-11-25T11:37:33.744Z,-1.82
2022-11-25T11:40:31.333Z,-1.97
2022-11-25T11:43:38.486Z,-2.03
2022-11-25T11:46:36.886Z,-2.11
2022-11-25T11:49:27.609Z,-2.02
2022-11-25T11:52:25.524Z,-1.97
2022-11-25T11:54:59.209Z,-2.06
2022-11-25T11:57:53.909Z,-1.95
2022-11-25T12:00:22.652Z,-1.97
2022-11-25T12:03:14.796Z,-1.89
2022-11-25T12:05:42.642Z,-1.89
2022-11-25T12:08:19.555Z,-1.91
2022-11-25T12:11:13.820Z,-1.81
2022-11-25T12:14:07.964Z,-1.90
2022-11-25T12:16:46.852Z,-1.93
2022-11-25T12:19:24.017Z,-1.87
2022-11-25T12:22:00.744Z,-1.83
2022-11-25T12:24:57.032Z,-1.75
2022-11-25T12:30:16.478Z,-2.10
2022-11-25T12:32:53.082Z,-2.09
2022-11-25T12:35:57.377Z,-2.06
2022-11-25T12:38:45.525Z,-2.13
2022-11-25T12:41:42.853Z,-2.10
2022-11-25T12:44:25.394Z,-2.12
2022-11-25T12:46:56.284Z,-2.21
2022-11-25T12:49:29.934Z,-2.18
2022-11-25T12:52:17.097Z,-2.01
2022-11-25T12:55:03.299Z,-2.01
2022-11-25T12:57:54.682Z,-2.00
2022-11-25T13:00:41.669Z,-2.16
2022-11-25T13:03:31.212Z,-2.17
2022-11-25T13:06:49.814Z,-2.12
2022-11-25T13:09:22.888Z,-2.10
2022-11-25T13:12:18.519Z,-2.03
2022-11-25T13:14:55.220Z,-2.19
2022-11-25T13:17:24.305Z,-2.28
2022-11-25T13:20:29.874Z,-2.14
2022-11-25T13:23:10.403Z,-2.21
2022-11-25T13:25:41.307Z,-2.19
2022-11-25T13:28:27.137Z,-2.07
2022-11-25T13:30:55.038Z,-2.05
2022-11-25T13:33:25.251Z,-2.10
2022-11-25T13:35:55.177Z,-2.11
2022-11-25T13:38:59.730Z,-2.11
2022-11-25T13:41:42.728Z,-2.25
2022-11-25T13:44:13.357Z,-2.27
2022-11-25T13:46:51.625Z,-2.29
2022-11-25T13:49:36.353Z,-2.27
2022-11-25T13:52:29.133Z,-2.12
2022-11-25T13:54:57.579Z,-2.13
2022-11-25T13:57:29.589Z,-2.21
2022-11-25T14:00:10.418Z,-2.28
2022-11-25T14:02:45.510Z,-2.31
2022-11-25T14:05:37.239Z,-2.22
2022-11-25T14:08:39.819Z,-2.23
2022-11-25T14:11:10.025Z,-2.18
2022-11-25T14:13:46.305Z,-2.17
2022-11-25T14:16:32.438Z,-2.19
2022-11-25T14:19:51.738Z,-2.01
2022-11-25T14:22:31.097Z,-2.07
2022-11-25T14:25:26.825Z,-1.92
2022-11-25T14:28:22.186Z,-1.96
2022-11-25T14:31:00.952Z,-2.05
2022-11-25T14:33:43.782Z,-2.05
2022-11-25T14:36:15.507Z,-2.11
2022-11-25T14:38:52.871Z,-2.10
2022-11-25T14:41:25.812Z,-2.16
2022-11-25T14:43:58.801Z,-2.11
2022-11-25T14:46:26.360Z,-2.06
2022-11-25T14:49:07.626Z,-2.01
2022-11-25T14:51:41.959Z,-1.84
2022-11-25T14:54:10.645Z,-1.99
2022-11-25T14:56:39.326Z,-2.04
2022-11-25T14:59:09.921Z,-2.12
2022-11-25T15:01:40.049Z,-2.19
2022-11-25T15:04:15.889Z,-2.21
2022-11-25T15:06:50.411Z,-2.21
2022-11-25T15:09:24.926Z,-2.28
2022-11-25T15:12:11.437Z,-2.27
2022-11-25T15:14:47.773Z,-2.31
2022-11-25T15:17:37.623Z,-2.27
2022-11-25T15:20:19.845Z,-2.26
2022-11-25T15:22:52.543Z,-2.32
2022-11-25T15:25:20.494Z,-2.30
2022-11-25T15:27:52.648Z,-2.29
2022-11-25T15:30:27.228Z,-2.33
2022-11-25T15:32:56.482Z,-2.30
2022-11-25T15:35:26.310Z,-2.16
2022-11-25T15:37:56.915Z,-2.16
2022-11-25T15:40:44.486Z,-2.17
2022-11-25T15:43:31.931Z,-2.16
2022-11-25T15:46:05.657Z,-2.17
2022-11-25T15:48:46.340Z,-2.12
2022-11-25T15:51:44.673Z,-2.08
2022-11-25T15:54:20.970Z,-2.20
2022-11-25T15:56:51.638Z,-2.29
2022-11-25T15:59:38.564Z,-2.25
2022-11-25T16:02:39.150Z,-2.25
2022-11-25T16:05:12.282Z,-2.26
2022-11-25T16:08:20.948Z,-2.15
2022-11-25T16:11:12.355Z,-2.20
2022-11-25T16:13:40.458Z,-2.27
2022-11-25T16:16:07.964Z,-2.26
2022-11-25T16:18:40.979Z,-2.22
2022-11-25T16:21:30.904Z,-2.18
2022-11-25T16:24:07.691Z,-2.13
2022-11-25T16:26:49.401Z,-2.14
2022-11-25T16:29:39.419Z,-2.07
2022-11-25T16:32:19.208Z,-2.02
2022-11-25T16:34:46.930Z,-1.98
2022-11-25T16:37:14.638Z,-1.84
2022-11-25T16:39:42.450Z,-1.78
2022-11-25T16:42:28.164Z,-1.78
2022-11-25T16:44:55.736Z,-1.82
2022-11-25T16:47:24.381Z,-1.81
2022-11-25T16:49:52.123Z,-1.82
2022-11-25T16:52:19.814Z,-1.84
2022-11-25T16:54:47.600Z,-1.88
2022-11-25T16:57:22.012Z,-1.78
2022-11-25T16:59:57.255Z,-1.80
2022-11-25T17:02:26.301Z,-1.93
2022-11-25T17:04:54.046Z,-2.05
2022-11-25T17:07:38.377Z,-1.98
2022-11-25T17:10:07.351Z,-2.02
2022-11-25T17:12:36.385Z,-1.98
2022-11-25T17:15:06.931Z,-1.88
2022-11-25T17:17:34.969Z,-1.83
2022-11-25T17:20:07.176Z,-1.88
2022-11-25T17:22:39.141Z,-1.89
2022-11-25T17:25:08.033Z,-1.84
2022-11-25T17:27:35.691Z,-1.74
2022-11-25T17:30:06.715Z,-1.71
2022-11-25T17:32:35.039Z,-1.69
2022-11-25T17:35:02.642Z,-1.70
2022-11-25T17:37:32.065Z,-1.82
2022-11-25T17:39:59.932Z,-1.98
2022-11-25T17:42:31.585Z,-1.97
2022-11-25T17:45:00.660Z,-1.98
2022-11-25T17:47:28.359Z,-1.96
2022-11-25T17:49:55.984Z,-2.02
2022-11-25T17:52:23.719Z,-2.14
2022-11-25T17:54:51.375Z,-2.13
2022-11-25T17:57:21.749Z,-2.28
2022-11-25T17:59:49.697Z,-2.24
2022-11-25T18:02:22.403Z,-2.16
2022-11-25T18:04:50.602Z,-2.14
2022-11-25T18:07:19.003Z,-2.11
2022-11-25T18:09:47.109Z,-2.19
2022-11-25T18:12:34.537Z,-2.10
2022-11-25T18:15:07.989Z,-2.02
2022-11-25T18:17:37.258Z,-1.93
2022-11-25T18:20:22.116Z,-1.84
2022-11-25T18:22:50.927Z,-1.96
2022-11-25T18:25:28.804Z,-1.93
2022-11-25T18:27:57.204Z,-2.03
2022-11-25T18:30:28.244Z,-2.08
2022-11-25T18:32:57.401Z,-2.15
2022-11-25T18:35:35.679Z,-2.11
2022-11-25T18:38:04.844Z,-2.11
2022-11-25T18:40:33.645Z,-2.10
2022-11-25T18:43:03.610Z,-2.20
2022-11-25T18:45:39.324Z,-2.23
2022-11-25T18:48:18.940Z,-2.16
2022-11-25T18:50:47.942Z,-2.19
2022-11-25T18:53:15.858Z,-2.29
2022-11-25T18:55:43.867Z,-2.23
2022-11-25T18:58:20.572Z,-2.11
2022-11-25T19:00:49.996Z,-1.99
2022-11-25T19:03:26.269Z,-1.91
2022-11-25T19:05:59.546Z,-2.02
2022-11-25T19:08:27.666Z,-2.01
2022-11-25T19:10:56.136Z,-2.05
2022-11-25T19:13:28.728Z,-2.06
2022-11-25T19:16:02.261Z,-2.17
2022-11-25T19:18:30.054Z,-2.32
2022-11-25T19:20:57.731Z,-2.34
2022-11-25T19:23:28.120Z,-2.34
2022-11-25T19:26:01.091Z,-2.27
2022-11-25T19:28:31.066Z,-2.20
2022-11-25T19:31:03.318Z,-2.13
2022-11-25T19:33:40.524Z,-2.06
2022-11-25T19:36:17.351Z,-2.01
2022-11-25T19:38:45.057Z,-2.03
2022-11-25T19:41:12.527Z,-2.08
2022-11-25T19:43:40.147Z,-2.04
2022-11-25T19:46:29.617Z,-2.08
2022-11-25T19:49:03.296Z,-2.08
2022-11-25T19:51:34.015Z,-2.10
2022-11-25T19:54:01.535Z,-2.10
2022-11-25T19:56:29.203Z,-2.19
2022-11-25T19:58:57.239Z,-2.32
2022-11-25T20:01:32.358Z,-2.26
2022-11-25T20:04:00.176Z,-2.35
2022-11-25T20:06:28.364Z,-2.32
2022-11-25T20:09:01.205Z,-2.35
2022-11-25T20:11:32.501Z,-2.29
2022-11-25T20:13:59.973Z,-2.21
2022-11-25T20:16:38.612Z,-2.12
2022-11-25T20:19:07.348Z,-2.09
2022-11-25T20:21:40.325Z,-2.10
2022-11-25T20:24:14.745Z,-2.08
2022-11-25T20:26:46.098Z,-2.09
2022-11-25T20:29:19.834Z,-2.08
2022-11-25T20:31:48.216Z,-2.08
2022-11-25T20:34:15.912Z,-2.18
2022-11-25T20:36:44.781Z,-2.24
2022-11-25T20:39:20.434Z,-2.17
2022-11-25T20:41:52.803Z,-2.16
2022-11-25T20:44:21.209Z,-2.17
2022-11-25T20:46:48.846Z,-2.26
2022-11-25T20:49:27.645Z,-2.27
2022-11-25T20:51:56.819Z,-2.32
2022-11-25T20:54:24.826Z,-2.28
2022-11-25T20:56:52.633Z,-2.31
2022-11-25T20:59:22.253Z,-2.34
2022-11-25T21:01:54.625Z,-2.27
2022-11-25T21:04:22.614Z,-2.42
2022-11-25T21:06:50.088Z,-2.47
2022-11-25T21:09:25.109Z,-2.46
2022-11-25T21:11:52.682Z,-2.57
2022-11-25T21:14:20.372Z,-2.65
2022-11-25T21:16:49.372Z,-2.66
2022-11-25T21:19:16.901Z,-2.60
2022-11-25T21:21:46.980Z,-2.59
2022-11-25T21:24:38.733Z,-2.49
2022-11-25T21:27:14.621Z,-2.48
2022-11-25T21:29:43.914Z,-2.45
2022-11-25T21:32:23.550Z,-2.40
2022-11-25T21:34:51.447Z,-2.46
2022-11-25T21:37:32.540Z,-2.40
2022-11-25T21:40:00.648Z,-2.39
2022-11-25T21:42:30.010Z,-2.35
2022-11-25T21:44:57.842Z,-2.36
2022-11-25T21:47:28.910Z,-2.33
2022-11-25T21:49:56.465Z,-2.35
2022-11-25T21:52:24.665Z,-2.27
2022-11-25T21:54:52.191Z,-2.27
2022-11-25T21:57:27.815Z,-2.21
2022-11-25T21:59:55.878Z,-2.24
2022-11-25T22:02:24.822Z,-2.29
2022-11-25T22:04:52.452Z,-2.21
2022-11-25T22:07:20.031Z,-2.20
2022-11-25T22:09:47.635Z,-2.26
2022-11-25T22:12:30.363Z,-2.12
2022-11-25T22:14:59.690Z,-2.19
2022-11-25T22:17:29.386Z,-2.13
2022-11-25T22:19:57.292Z,-2.06
2022-11-25T22:22:25.019Z,-2.02
2022-11-25T22:24:52.710Z,-1.97
2022-11-25T22:27:26.034Z,-1.94
2022-11-25T22:29:55.678Z,-1.97
2022-11-25T22:32:23.518Z,-1.98
2022-11-25T22:34:50.995Z,-2.03
2022-11-25T22:37:20.797Z,-2.01
2022-11-25T22:39:48.739Z,-2.06
2022-11-25T22:42:31.956Z,-2.09
2022-11-25T22:45:02.155Z,-2.04
2022-11-25T22:47:39.204Z,-2.04
2022-11-25T22:50:17.653Z,-2.10
2022-11-25T22:52:45.249Z,-2.14
2022-11-25T22:55:17.713Z,-2.21
2022-11-25T22:57:45.787Z,-2.30
2022-11-25T23:00:20.029Z,-2.35
2022-11-25T23:02:49.845Z,-2.33
2022-11-25T23:05:37.298Z,-2.28
2022-11-25T23:08:25.982Z,-2.28
2022-11-25T23:10:53.724Z,-2.40
2022-11-25T23:13:22.009Z,-2.33
2022-11-25T23:15:53.754Z,-2.35
2022-11-25T23:18:26.402Z,-2.34
2022-11-25T23:20:54.304Z,-2.37
2022-11-25T23:23:25.355Z,-2.33
2022-11-25T23:25:53.120Z,-2.22
2022-11-25T23:28:20.826Z,-2.19
2022-11-25T23:30:54.220Z,-2.08
2022-11-25T23:33:38.038Z,-2.09
2022-11-25T23:36:28.546Z,-2.10
2022-11-25T23:38:59.310Z,-2.11
2022-11-25T23:41:30.146Z,-2.20
2022-11-25T23:44:02.181Z,-2.19
2022-11-25T23:46:33.349Z,-2.22
2022-11-25T23:49:02.993Z,-2.17
2022-11-25T23:51:30.979Z,-2.10
2022-11-25T23:53:59.013Z,-2.05
2022-11-25T23:56:28.121Z,-2.07
2022-11-25T23:58:55.638Z,-2.09
